KBGR/BGR METAR and TAF weather

Enter ICAO airport designator
Station Type Date Time Source
KBGR METAR 2020/04/05 05:53 UTC NOAA

KBGR 050553Z 15004KT 10SM OVC060 02/00 A3004 RMK AO2 SLP174 T00220000 10078 20017 50004


Station Type Date Time Source
KBGR Decoded METAR 2020/04/05 05:53 UTC NOAA

BANGOR INT'L AIRPORT, ME, United States (KBGR) 44-48N 068-49W 57M
Apr 05, 2020 - 01:53 AM EDT / 2020.04.05 0553 UTC
Wind: from the SSE (150 degrees) at 5 MPH (4 KT):0
Visibility: 10 mile(s):0
Sky conditions: overcast
Temperature: 36.0 F (2.2 C)
Dew Point: 32.0 F (0.0 C)
Relative Humidity: 85%
Pressure (altimeter): 30.04 in. Hg (1017 hPa)
Pressure tendency: 0.01 inches (0.4 hPa) higher than three hours ago
ob: KBGR 050553Z 15004KT 10SM OVC060 02/00 A3004 RMK AO2 SLP174 T00220000 10078 20017 50004
cycle: 6

Station Type Date Time Source
KBGR TAF 2020/04/05 06:42 UTC NOAA

TAF KBGR 050538Z 0506/0606 34003KT P6SM BKN050
FM050800 00000KT 2SM BR SCT005 BKN020
FM051200 18004KT P6SM BKN040
FM052200 19003KT P6SM VCSH BKN015
FM060300 00000KT P6SM VCSH BKN009

Example: see airport list